Portada
METAR-TAF:

METAR-TAF

Aeroports :

Algesires, Espanya

latitud: 36-07-44N, longitud: 05-26-28W, altitud: 30 m

Observació

L'informe es va fer fa 17 minuts, a les 17:00 UTC
Vent 6 kt del Sud/Sud-Est, variant entre Est/Sud-Est i Sud/Sud-Oest
Temperatura 22°C
Humitat 83%
Pressió 1018 hPa
Visibilitat 10 km o més
sense núvols per sota de 1500 mi sense presència de cumulonimbus.

METAR: LEAG 181700Z AUTO 15006KT 120V210 CAVOK 22/19 Q1018

Hora: 19:17 (17:17 UTC)


TAF: manca

Observacions i pronòstics meteorològics de més de 4000 aeroports (METAR i TAF).

Les estacions disponibles són els punts grocs i vermells al mapa.

Posi el ratolí al punt desitjat per veure el nom de l'estació.

Feu clic per veure les observacions i els pronòstics meteorològics.

Per canviar el mapa: feu clic els botons verds amb una creu de color negre per apropar; al botó verd amb un guió per allunyar la imatge; o en les fletxes verdes per a mapes adjacents.


METAR-TAF: